sensor_id;sensor_type;location;lat;lon;timestamp;pressure;altitude;pressure_sealevel;temperature;humidity
70053;BME280;57398;52.032;4.376;2022-12-18T00:00:01;102972.13;;;-3.98;nan
70053;BME280;57398;52.032;4.376;2022-12-18T00:02:30;102971.50;;;-4.04;nan
70053;BME280;57398;52.032;4.376;2022-12-18T00:07:26;102993.47;;;-4.03;nan
70053;BME280;57398;52.032;4.376;2022-12-18T00:09:54;102996.75;;;-4.01;nan
70053;BME280;57398;52.032;4.376;2022-12-18T00:12:22;102993.13;;;-4.14;nan
70053;BME280;57398;52.032;4.376;2022-12-18T00:14:49;102996.34;;;-4.10;nan
70053;BME280;57398;52.032;4.376;2022-12-18T00:17:17;102992.72;;;-4.05;nan
70053;BME280;57398;52.032;4.376;2022-12-18T00:19:46;102989.00;;;-3.97;nan
70053;BME280;57398;52.032;4.376;2022-12-18T00:22:14;102991.34;;;-4.12;nan
70053;BME280;57398;52.032;4.376;2022-12-18T00:24:41;102989.63;;;-4.11;nan
70053;BME280;57398;52.032;4.376;2022-12-18T00:27:09;102982.00;;;-4.11;nan
70053;BME280;57398;52.032;4.376;2022-12-18T00:29:40;102972.06;;;-4.16;nan
70053;BME280;57398;52.032;4.376;2022-12-18T00:32:07;102976.22;;;-4.15;nan
70053;BME280;57398;52.032;4.376;2022-12-18T00:34:35;102986.28;;;-4.12;nan
70053;BME280;57398;52.032;4.376;2022-12-18T00:37:04;102974.88;;;-4.22;nan
70053;BME280;57398;52.032;4.376;2022-12-18T00:39:32;102972.47;;;-4.25;nan
70053;BME280;57398;52.032;4.376;2022-12-18T00:42:00;102984.06;;;-4.19;nan
70053;BME280;57398;52.032;4.376;2022-12-18T00:44:45;102987.22;;;-4.14;nan
70053;BME280;57398;52.032;4.376;2022-12-18T00:47:13;102984.75;;;-4.16;nan
70053;BME280;57398;52.032;4.376;2022-12-18T00:49:41;102987.28;;;-4.16;nan
70053;BME280;57398;52.032;4.376;2022-12-18T00:52:10;102996.28;;;-4.09;nan
70053;BME280;57398;52.032;4.376;2022-12-18T00:54:38;102996.41;;;-4.12;nan
70053;BME280;57398;52.032;4.376;2022-12-18T00:57:05;102990.03;;;-4.21;nan
70053;BME280;57398;52.032;4.376;2022-12-18T00:59:33;102994.97;;;-4.17;nan
70053;BME280;57398;52.032;4.376;2022-12-18T01:02:01;102996.53;;;-4.15;nan
70053;BME280;57398;52.032;4.376;2022-12-18T01:04:30;102998.47;;;-4.20;nan
70053;BME280;57398;52.032;4.376;2022-12-18T01:06:58;102991.88;;;-4.24;nan
70053;BME280;57398;52.032;4.376;2022-12-18T01:09:27;102994.16;;;-4.18;nan
70053;BME280;57398;52.032;4.376;2022-12-18T01:11:55;103007.59;;;-4.16;nan
70053;BME280;57398;52.032;4.376;2022-12-18T01:14:23;103002.72;;;-4.21;nan
70053;BME280;57398;52.032;4.376;2022-12-18T01:16:50;103005.41;;;-4.24;nan
70053;BME280;57398;52.032;4.376;2022-12-18T01:19:18;103000.25;;;-4.22;nan
70053;BME280;57398;52.032;4.376;2022-12-18T01:24:13;103002.66;;;-4.19;nan
70053;BME280;57398;52.032;4.376;2022-12-18T01:26:42;103005.88;;;-4.15;nan
70053;BME280;57398;52.032;4.376;2022-12-18T01:29:10;103000.94;;;-4.18;nan
70053;BME280;57398;52.032;4.376;2022-12-18T01:31:38;102997.66;;;-4.21;nan
70053;BME280;57398;52.032;4.376;2022-12-18T01:34:06;103002.16;;;-4.27;nan
70053;BME280;57398;52.032;4.376;2022-12-18T01:36:35;103003.81;;;-4.26;nan
70053;BME280;57398;52.032;4.376;2022-12-18T01:39:06;103005.47;;;-4.25;nan
70053;BME280;57398;52.032;4.376;2022-12-18T01:41:34;103003.00;;;-4.27;nan
70053;BME280;57398;52.032;4.376;2022-12-18T01:47:34;103019.31;;;-4.32;nan
70053;BME280;57398;52.032;4.376;2022-12-18T01:50:05;103020.59;;;-4.43;nan
70053;BME280;57398;52.032;4.376;2022-12-18T01:52:34;103029.56;;;-4.35;nan
70053;BME280;57398;52.032;4.376;2022-12-18T01:55:05;103030.69;;;-4.41;nan
70053;BME280;57398;52.032;4.376;2022-12-18T01:57:34;103033.41;;;-4.46;nan
70053;BME280;57398;52.032;4.376;2022-12-18T02:00:05;103032.59;;;-4.46;nan
70053;BME280;57398;52.032;4.376;2022-12-18T02:02:35;103024.03;;;-4.44;nan
70053;BME280;57398;52.032;4.376;2022-12-18T02:05:04;103027.63;;;-4.49;nan
70053;BME280;57398;52.032;4.376;2022-12-18T02:07:38;103028.09;;;-4.39;nan
70053;BME280;57398;52.032;4.376;2022-12-18T02:10:13;103023.41;;;-4.49;nan
70053;BME280;57398;52.032;4.376;2022-12-18T02:12:46;103023.53;;;-4.52;nan
70053;BME280;57398;52.032;4.376;2022-12-18T02:15:19;103018.72;;;-4.58;nan
70053;BME280;57398;52.032;4.376;2022-12-18T02:17:54;103026.88;;;-4.51;nan
70053;BME280;57398;52.032;4.376;2022-12-18T02:23:14;103027.06;;;-4.56;nan
70053;BME280;57398;52.032;4.376;2022-12-18T02:26:02;103027.25;;;-4.60;nan
70053;BME280;57398;52.032;4.376;2022-12-18T02:28:36;103026.44;;;-4.61;nan
70053;BME280;57398;52.032;4.376;2022-12-18T02:31:08;103030.75;;;-4.63;nan
70053;BME280;57398;52.032;4.376;2022-12-18T02:33:39;103030.28;;;-4.71;nan
70053;BME280;57398;52.032;4.376;2022-12-18T02:36:12;103027.13;;;-4.76;nan
70053;BME280;57398;52.032;4.376;2022-12-18T02:38:42;103013.00;;;-4.84;nan
70053;BME280;57398;52.032;4.376;2022-12-18T02:41:14;103008.22;;;-4.90;nan
70053;BME280;57398;52.032;4.376;2022-12-18T02:43:47;103003.25;;;-4.93;nan
70053;BME280;57398;52.032;4.376;2022-12-18T02:46:36;102994.25;;;-5.00;nan
70053;BME280;57398;52.032;4.376;2022-12-18T02:49:14;102991.72;;;-5.00;nan
70053;BME280;57398;52.032;4.376;2022-12-18T02:51:51;102985.22;;;-5.06;nan
70053;BME280;57398;52.032;4.376;2022-12-18T02:54:35;102980.44;;;-5.13;nan
70053;BME280;57398;52.032;4.376;2022-12-18T02:57:14;102981.41;;;-5.16;nan
70053;BME280;57398;52.032;4.376;2022-12-18T02:59:52;102980.44;;;-5.13;nan
70053;BME280;57398;52.032;4.376;2022-12-18T03:02:26;102968.03;;;-5.19;nan
70053;BME280;57398;52.032;4.376;2022-12-18T03:05:01;102969.50;;;-5.14;nan
70053;BME280;57398;52.032;4.376;2022-12-18T03:07:36;102971.84;;;-5.09;nan
70053;BME280;57398;52.032;4.376;2022-12-18T03:10:08;102958.97;;;-5.05;nan
70053;BME280;57398;52.032;4.376;2022-12-18T03:12:43;102967.59;;;-5.09;nan
70053;BME280;57398;52.032;4.376;2022-12-18T03:15:17;102966.97;;;-5.14;nan
70053;BME280;57398;52.032;4.376;2022-12-18T03:17:51;102964.03;;;-5.25;nan
70053;BME280;57398;52.032;4.376;2022-12-18T03:20:21;102962.22;;;-5.21;nan
70053;BME280;57398;52.032;4.376;2022-12-18T03:25:19;102956.00;;;-5.35;nan
70053;BME280;57398;52.032;4.376;2022-12-18T03:27:51;102956.00;;;-5.35;nan
70053;BME280;57398;52.032;4.376;2022-12-18T03:30:22;102952.75;;;-5.38;nan
70053;BME280;57398;52.032;4.376;2022-12-18T03:32:53;102953.97;;;-5.47;nan
70053;BME280;57398;52.032;4.376;2022-12-18T03:35:29;102952.44;;;-5.51;nan
70053;BME280;57398;52.032;4.376;2022-12-18T03:37:59;102953.19;;;-5.49;nan
70053;BME280;57398;52.032;4.376;2022-12-18T03:40:33;102960.72;;;-5.48;nan
70053;BME280;57398;52.032;4.376;2022-12-18T03:43:08;102953.97;;;-5.47;nan
70053;BME280;57398;52.032;4.376;2022-12-18T03:45:42;102957.06;;;-5.40;nan
70053;BME280;57398;52.032;4.376;2022-12-18T03:48:17;102957.75;;;-5.37;nan
70053;BME280;57398;52.032;4.376;2022-12-18T03:50:49;102948.44;;;-5.36;nan
70053;BME280;57398;52.032;4.376;2022-12-18T03:53:31;102954.47;;;-5.39;nan
70053;BME280;57398;52.032;4.376;2022-12-18T03:56:02;102963.81;;;-5.41;nan
70053;BME280;57398;52.032;4.376;2022-12-18T03:58:34;102960.72;;;-5.48;nan
70053;BME280;57398;52.032;4.376;2022-12-18T04:01:05;102954.78;;;-5.47;nan
70053;BME280;57398;52.032;4.376;2022-12-18T04:03:35;102954.84;;;-5.48;nan
70053;BME280;57398;52.032;4.376;2022-12-18T04:06:05;102952.31;;;-5.48;nan
70053;BME280;57398;52.032;4.376;2022-12-18T04:08:34;102952.66;;;-5.57;nan
70053;BME280;57398;52.032;4.376;2022-12-18T04:11:02;102959.50;;;-5.59;nan
70053;BME280;57398;52.032;4.376;2022-12-18T04:13:35;102958.84;;;-5.64;nan
70053;BME280;57398;52.032;4.376;2022-12-18T04:16:03;102949.69;;;-5.67;nan
70053;BME280;57398;52.032;4.376;2022-12-18T04:18:31;102954.91;;;-5.72;nan
70053;BME280;57398;52.032;4.376;2022-12-18T04:20:59;102946.88;;;-5.81;nan
70053;BME280;57398;52.032;4.376;2022-12-18T04:23:27;102956.09;;;-5.80;nan
70053;BME280;57398;52.032;4.376;2022-12-18T04:25:55;102959.56;;;-5.83;nan
70053;BME280;57398;52.032;4.376;2022-12-18T04:28:22;102966.41;;;-5.85;nan
70053;BME280;57398;52.032;4.376;2022-12-18T04:30:51;102964.97;;;-5.92;nan
70053;BME280;57398;52.032;4.376;2022-12-18T04:35:47;102966.94;;;-5.99;nan
70053;BME280;57398;52.032;4.376;2022-12-18T04:38:15;102964.53;;;-6.02;nan
70053;BME280;57398;52.032;4.376;2022-12-18T04:43:10;102970.03;;;-6.14;nan
70053;BME280;57398;52.032;4.376;2022-12-18T04:45:38;102971.22;;;-6.23;nan
70053;BME280;57398;52.032;4.376;2022-12-18T04:48:07;102963.84;;;-6.29;nan
70053;BME280;57398;52.032;4.376;2022-12-18T04:50:35;102958.84;;;-6.30;nan
70053;BME280;57398;52.032;4.376;2022-12-18T04:53:03;102965.59;;;-6.31;nan
70053;BME280;57398;52.032;4.376;2022-12-18T04:55:30;102962.53;;;-6.39;nan
70053;BME280;57398;52.032;4.376;2022-12-18T04:57:58;102958.34;;;-6.40;nan
70053;BME280;57398;52.032;4.376;2022-12-18T05:00:26;102952.34;;;-6.38;nan
70053;BME280;57398;52.032;4.376;2022-12-18T05:02:54;102949.38;;;-6.49;nan
70053;BME280;57398;52.032;4.376;2022-12-18T05:05:23;102960.22;;;-6.45;nan
70053;BME280;57398;52.032;4.376;2022-12-18T05:07:51;102954.31;;;-6.46;nan
70053;BME280;57398;52.032;4.376;2022-12-18T05:10:18;102963.09;;;-6.55;nan
70053;BME280;57398;52.032;4.376;2022-12-18T05:12:46;102960.59;;;-6.56;nan
70053;BME280;57398;52.032;4.376;2022-12-18T05:15:28;102953.84;;;-6.56;nan
70053;BME280;57398;52.032;4.376;2022-12-18T05:17:56;102958.25;;;-6.61;nan
70053;BME280;57398;52.032;4.376;2022-12-18T05:20:26;102945.00;;;-6.67;nan
70053;BME280;57398;52.032;4.376;2022-12-18T05:22:55;102938.53;;;-6.76;nan
70053;BME280;57398;52.032;4.376;2022-12-18T05:25:23;102952.78;;;-6.74;nan
70053;BME280;57398;52.032;4.376;2022-12-18T05:27:51;102934.25;;;-6.74;nan
70053;BME280;57398;52.032;4.376;2022-12-18T05:30:19;102936.94;;;-6.79;nan
70053;BME280;57398;52.032;4.376;2022-12-18T05:32:47;102933.81;;;-6.85;nan
70053;BME280;57398;52.032;4.376;2022-12-18T05:35:15;102937.94;;;-6.83;nan
70053;BME280;57398;52.032;4.376;2022-12-18T05:37:44;102945.34;;;-6.78;nan
70053;BME280;57398;52.032;4.376;2022-12-18T05:40:12;102933.56;;;-6.78;nan
70053;BME280;57398;52.032;4.376;2022-12-18T05:42:39;102936.25;;;-6.82;nan
70053;BME280;57398;52.032;4.376;2022-12-18T05:45:08;102933.00;;;-6.86;nan
70053;BME280;57398;52.032;4.376;2022-12-18T05:47:36;102934.78;;;-6.89;nan
70053;BME280;57398;52.032;4.376;2022-12-18T05:50:05;102930.75;;;-6.93;nan
70053;BME280;57398;52.032;4.376;2022-12-18T05:52:33;102929.34;;;-7.02;nan
70053;BME280;57398;52.032;4.376;2022-12-18T05:55:03;102939.13;;;-6.93;nan
70053;BME280;57398;52.032;4.376;2022-12-18T05:57:31;102941.94;;;-7.01;nan
70053;BME280;57398;52.032;4.376;2022-12-18T05:59:59;102937.84;;;-7.05;nan
70053;BME280;57398;52.032;4.376;2022-12-18T06:02:26;102934.81;;;-7.14;nan
70053;BME280;57398;52.032;4.376;2022-12-18T06:04:54;102935.53;;;-7.11;nan
70053;BME280;57398;52.032;4.376;2022-12-18T06:07:22;102922.59;;;-7.02;nan
70053;BME280;57398;52.032;4.376;2022-12-18T06:09:50;102914.88;;;-6.99;nan
70053;BME280;57398;52.032;4.376;2022-12-18T06:12:19;102915.63;;;-6.95;nan
70053;BME280;57398;52.032;4.376;2022-12-18T06:14:47;102908.78;;;-6.91;nan
70053;BME280;57398;52.032;4.376;2022-12-18T06:17:15;102909.44;;;-6.86;nan
70053;BME280;57398;52.032;4.376;2022-12-18T06:19:42;102901.91;;;-6.88;nan
70053;BME280;57398;52.032;4.376;2022-12-18T06:22:10;102903.66;;;-6.90;nan
70053;BME280;57398;52.032;4.376;2022-12-18T06:24:38;102910.41;;;-6.90;nan
70053;BME280;57398;52.032;4.376;2022-12-18T06:27:05;102900.41;;;-6.93;nan
70053;BME280;57398;52.032;4.376;2022-12-18T06:29:34;102896.06;;;-6.90;nan
70053;BME280;57398;52.032;4.376;2022-12-18T06:32:02;102896.06;;;-6.90;nan
70053;BME280;57398;52.032;4.376;2022-12-18T06:34:31;102892.75;;;-6.92;nan
70053;BME280;57398;52.032;4.376;2022-12-18T06:36:58;102882.56;;;-6.89;nan
70053;BME280;57398;52.032;4.376;2022-12-18T06:39:27;102883.34;;;-6.87;nan
70053;BME280;57398;52.032;4.376;2022-12-18T06:41:55;102879.88;;;-6.84;nan
70053;BME280;57398;52.032;4.376;2022-12-18T06:44:23;102883.19;;;-6.82;nan
70053;BME280;57398;52.032;4.376;2022-12-18T06:46:52;102873.84;;;-6.80;nan
70053;BME280;57398;52.032;4.376;2022-12-18T06:49:20;102861.25;;;-6.82;nan
70053;BME280;57398;52.032;4.376;2022-12-18T06:51:51;102858.84;;;-6.85;nan
70053;BME280;57398;52.032;4.376;2022-12-18T06:54:19;102860.50;;;-6.84;nan
70053;BME280;57398;52.032;4.376;2022-12-18T06:56:47;102864.59;;;-6.81;nan
70053;BME280;57398;52.032;4.376;2022-12-18T07:01:42;102848.59;;;-6.80;nan
70053;BME280;57398;52.032;4.376;2022-12-18T07:04:11;102842.75;;;-6.82;nan
70053;BME280;57398;52.032;4.376;2022-12-18T07:06:39;102846.25;;;-6.86;nan
70053;BME280;57398;52.032;4.376;2022-12-18T07:09:06;102846.34;;;-6.89;nan
70053;BME280;57398;52.032;4.376;2022-12-18T07:11:34;102838.63;;;-6.85;nan
70053;BME280;57398;52.032;4.376;2022-12-18T07:14:02;102832.69;;;-6.84;nan
70053;BME280;57398;52.032;4.376;2022-12-18T07:16:30;102815.00;;;-6.84;nan
70053;BME280;57398;52.032;4.376;2022-12-18T07:18:58;102800.78;;;-6.86;nan
70053;BME280;57398;52.032;4.376;2022-12-18T07:21:27;102794.97;;;-6.88;nan
70053;BME280;57398;52.032;4.376;2022-12-18T07:23:54;102781.44;;;-6.87;nan
70053;BME280;57398;52.032;4.376;2022-12-18T07:26:23;102783.19;;;-6.89;nan
70053;BME280;57398;52.032;4.376;2022-12-18T07:28:54;102783.75;;;-6.81;nan
70053;BME280;57398;52.032;4.376;2022-12-18T07:31:23;102787.94;;;-6.80;nan
70053;BME280;57398;52.032;4.376;2022-12-18T07:33:51;102782.81;;;-6.79;nan
70053;BME280;57398;52.032;4.376;2022-12-18T07:36:23;102780.91;;;-6.74;nan
70053;BME280;57398;52.032;4.376;2022-12-18T07:38:52;102786.09;;;-6.77;nan
70053;BME280;57398;52.032;4.376;2022-12-18T07:41:20;102785.22;;;-6.76;nan
70053;BME280;57398;52.032;4.376;2022-12-18T07:43:48;102785.94;;;-6.72;nan
70053;BME280;57398;52.032;4.376;2022-12-18T07:46:16;102800.97;;;-6.69;nan
70053;BME280;57398;52.032;4.376;2022-12-18T07:48:44;102794.91;;;-6.65;nan
70053;BME280;57398;52.032;4.376;2022-12-18T07:51:15;102793.28;;;-6.66;nan
70053;BME280;57398;52.032;4.376;2022-12-18T07:53:44;102781.59;;;-6.68;nan
70053;BME280;57398;52.032;4.376;2022-12-18T07:56:13;102770.88;;;-6.75;nan
70053;BME280;57398;52.032;4.376;2022-12-18T07:58:53;102769.78;;;-6.68;nan
70053;BME280;57398;52.032;4.376;2022-12-18T08:01:21;102771.41;;;-6.67;nan
70053;BME280;57398;52.032;4.376;2022-12-18T08:03:49;102781.41;;;-6.64;nan
70053;BME280;57398;52.032;4.376;2022-12-18T08:06:18;102782.25;;;-6.63;nan
70053;BME280;57398;52.032;4.376;2022-12-18T08:08:47;102775.66;;;-6.67;nan
70053;BME280;57398;52.032;4.376;2022-12-18T08:13:45;102771.31;;;-6.64;nan
70053;BME280;57398;52.032;4.376;2022-12-18T08:16:12;102767.94;;;-6.64;nan
70053;BME280;57398;52.032;4.376;2022-12-18T08:18:40;102769.66;;;-6.65;nan
70053;BME280;57398;52.032;4.376;2022-12-18T08:23:37;102770.53;;;-6.66;nan
70053;BME280;57398;52.032;4.376;2022-12-18T08:26:08;102765.22;;;-6.60;nan
70053;BME280;57398;52.032;4.376;2022-12-18T08:28:38;102765.94;;;-6.56;nan
70053;BME280;57398;52.032;4.376;2022-12-18T08:31:07;102762.31;;;-6.49;nan
70053;BME280;57398;52.032;4.376;2022-12-18T08:33:35;102786.59;;;-6.45;nan
70053;BME280;57398;52.032;4.376;2022-12-18T08:36:05;102783.25;;;-6.45;nan
70053;BME280;57398;52.032;4.376;2022-12-18T08:38:33;102786.41;;;-6.40;nan
70053;BME280;57398;52.032;4.376;2022-12-18T08:41:01;102797.75;;;-6.28;nan
70053;BME280;57398;52.032;4.376;2022-12-18T08:43:29;102805.94;;;-6.22;nan
70053;BME280;57398;52.032;4.376;2022-12-18T08:46:16;102813.47;;;-6.20;nan
70053;BME280;57398;52.032;4.376;2022-12-18T08:48:44;102825.09;;;-6.16;nan
70053;BME280;57398;52.032;4.376;2022-12-18T08:51:12;102824.16;;;-6.14;nan
70053;BME280;57398;52.032;4.376;2022-12-18T08:53:40;102828.19;;;-6.09;nan
70053;BME280;57398;52.032;4.376;2022-12-18T08:56:08;102822.13;;;-6.05;nan
70053;BME280;57398;52.032;4.376;2022-12-18T08:58:35;102817.78;;;-6.02;nan
70053;BME280;57398;52.032;4.376;2022-12-18T09:01:05;102803.47;;;-6.03;nan
70053;BME280;57398;52.032;4.376;2022-12-18T09:03:35;102802.88;;;-5.89;nan
70053;BME280;57398;52.032;4.376;2022-12-18T09:08:31;102794.06;;;-5.79;nan
70053;BME280;57398;52.032;4.376;2022-12-18T09:10:59;102785.44;;;-5.75;nan
70053;BME280;57398;52.032;4.376;2022-12-18T09:13:27;102780.19;;;-5.70;nan
70053;BME280;57398;52.032;4.376;2022-12-18T09:15:55;102760.63;;;-5.66;nan
70053;BME280;57398;52.032;4.376;2022-12-18T09:18:23;102754.41;;;-5.59;nan
70053;BME280;57398;52.032;4.376;2022-12-18T09:20:52;102754.97;;;-5.53;nan
70053;BME280;57398;52.032;4.376;2022-12-18T09:23:20;102759.78;;;-5.47;nan
70053;BME280;57398;52.032;4.376;2022-12-18T09:25:48;102751.16;;;-5.42;nan
70053;BME280;57398;52.032;4.376;2022-12-18T09:28:17;102748.56;;;-5.41;nan
70053;BME280;57398;52.032;4.376;2022-12-18T09:30:47;102728.03;;;-5.35;nan
70053;BME280;57398;52.032;4.376;2022-12-18T09:33:16;102732.84;;;-5.29;nan
70053;BME280;57398;52.032;4.376;2022-12-18T09:35:45;102760.09;;;-5.15;nan
70053;BME280;57398;52.032;4.376;2022-12-18T09:38:15;102761.72;;;-5.14;nan
70053;BME280;57398;52.032;4.376;2022-12-18T09:40:47;102752.84;;;-5.03;nan
70053;BME280;57398;52.032;4.376;2022-12-18T09:43:18;102755.81;;;-4.95;nan
70053;BME280;57398;52.032;4.376;2022-12-18T09:45:49;102764.88;;;-4.90;nan
70053;BME280;57398;52.032;4.376;2022-12-18T09:48:21;102771.63;;;-4.90;nan
70053;BME280;57398;52.032;4.376;2022-12-18T09:50:52;102763.66;;;-4.81;nan
70053;BME280;57398;52.032;4.376;2022-12-18T09:53:26;102764.16;;;-4.74;nan
70053;BME280;57398;52.032;4.376;2022-12-18T09:55:56;102750.66;;;-4.75;nan
70053;BME280;57398;52.032;4.376;2022-12-18T09:58:28;102746.28;;;-4.71;nan
70053;BME280;57398;52.032;4.376;2022-12-18T10:00:58;102742.41;;;-4.61;nan
70053;BME280;57398;52.032;4.376;2022-12-18T10:03:26;102733.84;;;-4.58;nan
70053;BME280;57398;52.032;4.376;2022-12-18T10:06:02;102727.81;;;-4.56;nan
70053;BME280;57398;52.032;4.376;2022-12-18T10:08:40;102730.22;;;-4.53;nan
70053;BME280;57398;52.032;4.376;2022-12-18T10:11:23;102721.56;;;-4.49;nan
70053;BME280;57398;52.032;4.376;2022-12-18T10:13:54;102717.97;;;-4.45;nan
70053;BME280;57398;52.032;4.376;2022-12-18T10:16:27;102713.34;;;-4.36;nan
70053;BME280;57398;52.032;4.376;2022-12-18T10:19:33;102709.41;;;-4.42;nan
70053;BME280;57398;52.032;4.376;2022-12-18T10:22:15;102706.78;;;-4.40;nan
70053;BME280;57398;52.032;4.376;2022-12-18T10:24:54;102701.66;;;-4.39;nan
70053;BME280;57398;52.032;4.376;2022-12-18T10:27:25;102699.75;;;-4.35;nan
70053;BME280;57398;52.032;4.376;2022-12-18T10:29:54;102701.56;;;-4.20;nan
70053;BME280;57398;52.032;4.376;2022-12-18T10:32:23;102692.16;;;-4.18;nan
70053;BME280;57398;52.032;4.376;2022-12-18T10:34:57;102699.63;;;-4.15;nan
70053;BME280;57398;52.032;4.376;2022-12-18T10:37:28;102696.41;;;-4.18;nan
70053;BME280;57398;52.032;4.376;2022-12-18T10:40:12;102693.50;;;-4.11;nan
70053;BME280;57398;52.032;4.376;2022-12-18T10:42:47;102688.06;;;-4.03;nan
70053;BME280;57398;52.032;4.376;2022-12-18T10:45:25;102690.13;;;-3.94;nan
70053;BME280;57398;52.032;4.376;2022-12-18T10:47:52;102694.88;;;-3.88;nan
70053;BME280;57398;52.032;4.376;2022-12-18T10:50:28;102683.66;;;-3.84;nan
70053;BME280;57398;52.032;4.376;2022-12-18T10:53:20;102678.44;;;-3.81;nan
70053;BME280;57398;52.032;4.376;2022-12-18T10:55:52;102689.56;;;-3.83;nan
70053;BME280;57398;52.032;4.376;2022-12-18T10:58:23;102688.03;;;-3.70;nan
70053;BME280;57398;52.032;4.376;2022-12-18T11:01:07;102684.81;;;-3.73;nan
70053;BME280;57398;52.032;4.376;2022-12-18T11:03:37;102686.19;;;-3.66;nan
70053;BME280;57398;52.032;4.376;2022-12-18T11:06:08;102671.03;;;-3.52;nan
70053;BME280;57398;52.032;4.376;2022-12-18T11:08:36;102658.81;;;-3.61;nan
70053;BME280;57398;52.032;4.376;2022-12-18T11:11:19;102656.84;;;-3.56;nan
70053;BME280;57398;52.032;4.376;2022-12-18T11:14:02;102653.81;;;-3.47;nan
70053;BME280;57398;52.032;4.376;2022-12-18T11:16:34;102661.50;;;-3.48;nan
70053;BME280;57398;52.032;4.376;2022-12-18T11:19:21;102667.09;;;-3.42;nan
70053;BME280;57398;52.032;4.376;2022-12-18T11:21:51;102657.91;;;-3.44;nan
70053;BME280;57398;52.032;4.376;2022-12-18T11:24:21;102646.69;;;-3.40;nan
70053;BME280;57398;52.032;4.376;2022-12-18T11:26:53;102645.88;;;-3.41;nan
70053;BME280;57398;52.032;4.376;2022-12-18T11:29:31;102629.31;;;-3.32;nan
70053;BME280;57398;52.032;4.376;2022-12-18T11:32:23;102634.66;;;-3.21;nan
70053;BME280;57398;52.032;4.376;2022-12-18T11:34:58;102634.06;;;-3.26;nan
70053;BME280;57398;52.032;4.376;2022-12-18T11:37:28;102645.38;;;-3.31;nan
70053;BME280;57398;52.032;4.376;2022-12-18T11:40:00;102614.38;;;-3.22;nan
70053;BME280;57398;52.032;4.376;2022-12-18T11:42:35;102600.50;;;-3.17;nan
70053;BME280;57398;52.032;4.376;2022-12-18T11:45:23;102585.84;;;-3.11;nan
70053;BME280;57398;52.032;4.376;2022-12-18T11:47:57;102581.66;;;-3.12;nan
70053;BME280;57398;52.032;4.376;2022-12-18T11:50:30;102560.88;;;-3.05;nan
70053;BME280;57398;52.032;4.376;2022-12-18T11:53:01;102564.59;;;-3.10;nan
70053;BME280;57398;52.032;4.376;2022-12-18T11:55:37;102571.16;;;-3.06;nan
70053;BME280;57398;52.032;4.376;2022-12-18T11:58:13;102570.06;;;-3.02;nan
70053;BME280;57398;52.032;4.376;2022-12-18T12:00:50;102569.34;;;-3.04;nan
70053;BME280;57398;52.032;4.376;2022-12-18T12:03:35;102556.25;;;-2.98;nan
70053;BME280;57398;52.032;4.376;2022-12-18T12:06:13;102560.09;;;-2.91;nan
70053;BME280;57398;52.032;4.376;2022-12-18T12:09:04;102556.09;;;-2.95;nan
70053;BME280;57398;52.032;4.376;2022-12-18T12:11:43;102554.75;;;-2.86;nan
70053;BME280;57398;52.032;4.376;2022-12-18T12:14:40;102543.50;;;-2.82;nan
70053;BME280;57398;52.032;4.376;2022-12-18T12:17:17;102550.84;;;-2.78;nan
70053;BME280;57398;52.032;4.376;2022-12-18T12:19:53;102547.75;;;-2.83;nan
70053;BME280;57398;52.032;4.376;2022-12-18T12:22:29;102541.78;;;-2.82;nan
70053;BME280;57398;52.032;4.376;2022-12-18T12:25:11;102537.97;;;-2.75;nan
70053;BME280;57398;52.032;4.376;2022-12-18T12:27:51;102531.34;;;-2.77;nan
70053;BME280;57398;52.032;4.376;2022-12-18T12:30:29;102526.16;;;-2.76;nan
70053;BME280;57398;52.032;4.376;2022-12-18T12:33:11;102522.53;;;-2.71;nan
70053;BME280;57398;52.032;4.376;2022-12-18T12:35:47;102513.28;;;-2.72;nan
70053;BME280;57398;52.032;4.376;2022-12-18T12:38:22;102528.16;;;-2.66;nan
70053;BME280;57398;52.032;4.376;2022-12-18T12:40:56;102528.16;;;-2.66;nan
70053;BME280;57398;52.032;4.376;2022-12-18T12:43:34;102530.34;;;-2.60;nan
70053;BME280;57398;52.032;4.376;2022-12-18T12:46:05;102505.53;;;-2.71;nan
70053;BME280;57398;52.032;4.376;2022-12-18T12:48:41;102503.72;;;-2.69;nan
70053;BME280;57398;52.032;4.376;2022-12-18T12:51:16;102513.53;;;-2.63;nan
70053;BME280;57398;52.032;4.376;2022-12-18T12:53:45;102504.00;;;-2.59;nan
70053;BME280;57398;52.032;4.376;2022-12-18T12:56:14;102503.25;;;-2.61;nan
70053;BME280;57398;52.032;4.376;2022-12-18T12:58:49;102498.28;;;-2.63;nan
70053;BME280;57398;52.032;4.376;2022-12-18T13:01:28;102481.38;;;-2.64;nan
70053;BME280;57398;52.032;4.376;2022-12-18T13:04:03;102479.38;;;-2.59;nan
70053;BME280;57398;52.032;4.376;2022-12-18T13:06:42;102478.56;;;-2.59;nan
70053;BME280;57398;52.032;4.376;2022-12-18T13:09:11;102479.47;;;-2.60;nan
70053;BME280;57398;52.032;4.376;2022-12-18T13:11:41;102472.66;;;-2.60;nan
70053;BME280;57398;52.032;4.376;2022-12-18T13:14:29;102469.03;;;-2.56;nan
70053;BME280;57398;52.032;4.376;2022-12-18T13:17:21;102459.66;;;-2.55;nan
70053;BME280;57398;52.032;4.376;2022-12-18T13:20:01;102462.19;;;-2.55;nan
70053;BME280;57398;52.032;4.376;2022-12-18T13:22:32;102455.03;;;-2.48;nan
70053;BME280;57398;52.032;4.376;2022-12-18T13:25:01;102446.56;;;-2.49;nan
70053;BME280;57398;52.032;4.376;2022-12-18T13:27:58;102433.47;;;-2.43;nan
70053;BME280;57398;52.032;4.376;2022-12-18T13:30:53;102426.75;;;-2.44;nan
70053;BME280;57398;52.032;4.376;2022-12-18T13:33:41;102425.13;;;-2.45;nan
70053;BME280;57398;52.032;4.376;2022-12-18T13:36:31;102416.19;;;-2.38;nan
70053;BME280;57398;52.032;4.376;2022-12-18T13:45:42;102422.91;;;-2.37;nan
70053;BME280;57398;52.032;4.376;2022-12-18T13:48:22;102421.63;;;-2.29;nan
70053;BME280;57398;52.032;4.376;2022-12-18T13:50:58;102405.00;;;-2.35;nan
70053;BME280;57398;52.032;4.376;2022-12-18T13:53:30;102394.47;;;-2.29;nan
70053;BME280;57398;52.032;4.376;2022-12-18T13:56:01;102397.53;;;-2.24;nan
70053;BME280;57398;52.032;4.376;2022-12-18T13:58:29;102386.53;;;-2.24;nan
70053;BME280;57398;52.032;4.376;2022-12-18T14:00:57;102379.59;;;-2.22;nan
70053;BME280;57398;52.032;4.376;2022-12-18T14:03:27;102377.88;;;-2.22;nan
70053;BME280;57398;52.032;4.376;2022-12-18T14:06:03;102377.06;;;-2.22;nan
70053;BME280;57398;52.032;4.376;2022-12-18T14:08:38;102386.84;;;-2.16;nan